^^
Saratoga-Weather Station Historical Data
Daily Summary for March 2, 2020 Units:  Metric    English   Both
Daily Weekly Monthly Yearly Custom
  High: Low: Average:
Temperature: 13.8 °C 7.4 °C 11 °C
Dew Point: 13.2 °C 6.8 °C 10.4 °C
Humidity: 98% 95% 97%
Wind Speed: 11.1km/h 0km/h 0.6km/h
Wind Gust: 16.1km/h - -
Wind- - SSW
Pressure: 1000.3 hPa 985.4 hPa -
Precipitation: 9.9 mm    
Historical Graphs
 
 
Tabular Data for March 2, 2020
Time Temperature Dew Point Pressure Wind Wind Speed Wind Gust Humidity Rainfall Rate (Hourly) solar
00:02 8.8 °C 8.2 °C 1000.3 hPa Calm     96% 0.0 mm 0 W/m2
00:07 8.8 °C 8.2 °C 1000.3 hPa Calm     96% 0.0 mm 0 W/m2
00:12 8.8 °C 8.2 °C 1000.0 hPa Calm     96% 0.0 mm 0 W/m2
00:17 8.7 °C 7.9 °C 1000.0 hPa Calm     95% 0.0 mm 0 W/m2
00:22 8.7 °C 7.9 °C 1000.0 hPa Calm     95% 0.0 mm 0 W/m2
00:27 8.6 °C 8 °C 1000.0 hPa Calm   1.6 km/h 96% 0.0 mm 0 W/m2
00:32 8.6 °C 8 °C 1000.0 hPa Calm     96% 0.0 mm 0 W/m2
00:37 8.4 °C 7.8 °C 1000.0 hPa Calm   3.2 km/h 96% 0.0 mm 0 W/m2
00:42 8.4 °C 7.8 °C 999.7 hPa Calm     96% 0.0 mm 0 W/m2
00:47 8.3 °C 7.7 °C 999.7 hPa Calm     96% 0.0 mm 0 W/m2
00:52 8.2 °C 7.6 °C 999.7 hPa Calm     96% 0.0 mm 0 W/m2
00:57 8.2 °C 7.6 °C 999.7 hPa Calm     96% 0.0 mm 0 W/m2
01:02 8.2 °C 7.6 °C 999.7 hPa Calm     96% 0.0 mm 0 W/m2
01:07 8.1 °C 7.5 °C 999.3 hPa Calm     96% 0.0 mm 0 W/m2
01:12 8 °C 7.4 °C 999.3 hPa Calm     96% 0.0 mm 0 W/m2
01:17 7.9 °C 7.3 °C 999.3 hPa Calm     96% 0.0 mm 0 W/m2
01:22 7.8 °C 7.2 °C 999.3 hPa Calm     96% 0.0 mm 0 W/m2
01:27 7.8 °C 7.2 °C 999.3 hPa Calm     96% 0.0 mm 0 W/m2
01:32 7.8 °C 7.2 °C 999.3 hPa Calm     96% 0.0 mm 0 W/m2
01:37 7.8 °C 7.2 °C 999.3 hPa Calm     96% 0.0 mm 0 W/m2
01:42 7.8 °C 7.2 °C 999.0 hPa Calm     96% 0.0 mm 0 W/m2
01:47 7.8 °C 7.2 °C 999.0 hPa Calm     96% 0.0 mm 0 W/m2
01:52 7.8 °C 7.2 °C 998.6 hPa Calm     96% 0.0 mm 0 W/m2
01:57 7.7 °C 7.1 °C 998.6 hPa Calm     96% 0.0 mm 0 W/m2
02:02 7.7 °C 7.1 °C 998.6 hPa Calm     96% 0.0 mm 0 W/m2
02:07 7.7 °C 7.1 °C 998.6 hPa Calm     96% 0.0 mm 0 W/m2
02:12 7.6 °C 7 °C 998.6 hPa Calm     96% 0.0 mm 0 W/m2
02:17 7.6 °C 7 °C 998.3 hPa Calm     96% 0.0 mm 0 W/m2
02:22 7.6 °C 7 °C 998.3 hPa Calm     96% 0.0 mm 0 W/m2
02:27 7.5 °C 6.9 °C 998.3 hPa Calm     96% 0.0 mm 0 W/m2
02:33 7.6 °C 7 °C 998.3 hPa Calm     96% 0.0 mm 0 W/m2
02:38 7.6 °C 7 °C 998.0 hPa Calm     96% 0.0 mm 0 W/m2
02:43 7.6 °C 7 °C 998.0 hPa Calm     96% 0.0 mm 0 W/m2
02:48 7.5 °C 6.9 °C 998.0 hPa Calm     96% 0.0 mm 0 W/m2
02:53 7.5 °C 6.9 °C 998.0 hPa Calm     96% 0.0 mm 0 W/m2
02:58 7.4 °C 6.8 °C 997.6 hPa Calm     96% 0.0 mm 0 W/m2
03:03 7.5 °C 6.9 °C 997.6 hPa Calm     96% 0.0 mm 0 W/m2
03:08 7.6 °C 7 °C 997.6 hPa Calm     96% 0.0 mm 0 W/m2
03:13 7.6 °C 7 °C 997.6 hPa Calm     96% 0.0 mm 0 W/m2
03:18 7.7 °C 7.1 °C 997.3 hPa Calm     96% 0.0 mm 0 W/m2
03:23 7.7 °C 7.3 °C 997.3 hPa South 1.4 km/h 3.2 km/h 97% 0.0 mm 0 W/m2
03:28 7.8 °C 7.4 °C 997.3 hPa SE 3.2 km/h 4.8 km/h 97% 0.0 mm 0 W/m2
03:33 7.9 °C 7.5 °C 997.0 hPa Calm   3.2 km/h 97% 0.0 mm 0 W/m2
03:38 7.9 °C 7.5 °C 997.0 hPa Calm   4.8 km/h 97% 0.0 mm 0 W/m2
03:43 7.9 °C 7.5 °C 996.6 hPa Calm   3.2 km/h 97% 0.0 mm 0 W/m2
03:48 7.9 °C 7.5 °C 996.6 hPa Calm     97% 0.0 mm 0 W/m2
03:53 7.9 °C 7.5 °C 996.6 hPa Calm   3.2 km/h 97% 0.0 mm 0 W/m2
03:58 7.9 °C 7.5 °C 996.3 hPa SE 1.4 km/h 1.6 km/h 97% 0.0 mm 0 W/m2
04:03 7.9 °C 7.5 °C 996.3 hPa Calm     97% 0.0 mm 0 W/m2
04:08 7.9 °C 7.5 °C 996.3 hPa Calm     97% 0.0 mm 0 W/m2
04:13 7.9 °C 7.5 °C 995.9 hPa Calm   1.6 km/h 97% 0.0 mm 0 W/m2
04:18 8 °C 7.6 °C 995.9 hPa Calm     97% 0.0 mm 0 W/m2
04:23 8 °C 7.6 °C 996.3 hPa Calm   1.6 km/h 97% 0.0 mm 0 W/m2
04:28 8 °C 7.6 °C 995.9 hPa Calm     97% 0.0 mm 0 W/m2
04:33 8 °C 7.6 °C 995.9 hPa Calm     97% 0.0 mm 0 W/m2
04:38 8.1 °C 7.7 °C 995.9 hPa Calm     97% 0.0 mm 0 W/m2
04:43 8.1 °C 7.7 °C 995.6 hPa Calm     97% 0.0 mm 0 W/m2
04:48 8.1 °C 7.7 °C 995.6 hPa Calm     97% 0.0 mm 0 W/m2
04:53 8 °C 7.6 °C 995.6 hPa Calm     97% 0.0 mm 0 W/m2
04:58 7.9 °C 7.5 °C 995.6 hPa Calm     97% 0.0 mm 0 W/m2
05:03 7.9 °C 7.5 °C 995.3 hPa Calm     97% 0.0 mm 0 W/m2
05:08 7.8 °C 7.4 °C 995.3 hPa Calm     97% 0.0 mm 0 W/m2
05:14 7.9 °C 7.5 °C 995.3 hPa Calm     97% 0.0 mm 0 W/m2
05:19 7.9 °C 7.5 °C 994.9 hPa Calm     97% 0.0 mm 0 W/m2
05:24 8 °C 7.6 °C 995.3 hPa Calm     97% 0.0 mm 0 W/m2
05:29 8.1 °C 7.7 °C 994.9 hPa Calm     97% 0.0 mm 0 W/m2
05:34 8.1 °C 7.7 °C 994.6 hPa Calm     97% 0.0 mm 0 W/m2
05:39 8.2 °C 7.8 °C 994.2 hPa Calm   3.2 km/h 97% 0.0 mm 0 W/m2
05:44 8.3 °C 7.9 °C 994.2 hPa Calm   1.6 km/h 97% 0.0 mm 0 W/m2
05:49 8.3 °C 7.9 °C 994.2 hPa Calm     97% 0.0 mm 0 W/m2
05:54 8.3 °C 7.9 °C 994.2 hPa Calm     97% 0.0 mm 0 W/m2
06:00 8.4 °C 8 °C 994.2 hPa Calm     97% 0.0 mm 0 W/m2
06:05 8.4 °C 8 °C 993.9 hPa Calm     97% 0.0 mm 0 W/m2
06:10 8.3 °C 7.9 °C 993.9 hPa Calm     97% 0.0 mm 0 W/m2
06:15 8.3 °C 7.9 °C 993.9 hPa Calm     97% 0.0 mm 0 W/m2
06:20 8.3 °C 7.9 °C 993.9 hPa Calm     97% 0.0 mm 0 W/m2
06:25 8.3 °C 7.9 °C 993.9 hPa Calm     97% 0.0 mm 0 W/m2
06:31 8.3 °C 7.9 °C 993.6 hPa Calm   1.6 km/h 97% 0.0 mm 0 W/m2
06:36 8.4 °C 8 °C 993.6 hPa Calm   1.6 km/h 97% 0.0 mm 0 W/m2
06:41 8.4 °C 8 °C 993.6 hPa Calm   1.6 km/h 97% 0.0 mm 0 W/m2
06:46 8.5 °C 8.1 °C 993.2 hPa Calm     97% 0.0 mm 0 W/m2
06:51 8.6 °C 8.2 °C 993.2 hPa SE 1.4 km/h 1.6 km/h 97% 0.0 mm 0 W/m2
06:56 8.6 °C 8.2 °C 993.2 hPa SE 1.4 km/h 3.2 km/h 97% 0.0 mm 0 W/m2
07:01 8.7 °C 8.3 °C 993.2 hPa Calm   1.6 km/h 97% 0.0 mm 0 W/m2
07:06 8.7 °C 8.3 °C 993.2 hPa Calm   3.2 km/h 97% 0.0 mm 0 W/m2
07:11 8.8 °C 8.3 °C 993.2 hPa Calm     97% 0.0 mm 0 W/m2
07:16 8.8 °C 8.3 °C 992.9 hPa Calm   3.2 km/h 97% 0.0 mm 0 W/m2
07:21 8.8 °C 8.3 °C 992.9 hPa Calm     97% 0.0 mm 0 W/m2
07:26 8.8 °C 8.3 °C 992.9 hPa Calm     97% 0.0 mm 0 W/m2
07:31 8.8 °C 8.3 °C 992.5 hPa Calm     97% 0.0 mm 0 W/m2
07:36 8.8 °C 8.3 °C 992.5 hPa Calm   1.6 km/h 97% 0.0 mm 0 W/m2
07:41 8.9 °C 8.4 °C 992.5 hPa Calm     97% 0.0 mm 0 W/m2
07:46 8.9 °C 8.4 °C 992.5 hPa Calm     97% 0.0 mm 0 W/m2
07:51 8.9 °C 8.4 °C 992.5 hPa Calm     97% 0.0 mm 0 W/m2
07:56 9 °C 8.5 °C 992.5 hPa Calm     97% 0.0 mm 0 W/m2
08:01 9 °C 8.5 °C 992.5 hPa Calm     97% 0.0 mm 0 W/m2
08:06 9.1 °C 8.6 °C 992.5 hPa Calm     97% 0.0 mm 0 W/m2
08:11 9.1 °C 8.6 °C 992.5 hPa Calm     97% 0.0 mm 0 W/m2
08:16 9.2 °C 8.7 °C 992.5 hPa Calm   3.2 km/h 97% 0.0 mm 0 W/m2
08:21 9.3 °C 8.8 °C 992.2 hPa Calm   1.6 km/h 97% 0.2 mm 5 W/m2
08:26 9.3 °C 8.8 °C 992.2 hPa Calm     97% 0.2 mm 7 W/m2
08:31 9.4 °C 8.9 °C 992.2 hPa Calm   1.6 km/h 97% 0.2 mm 7 W/m2
08:36 9.4 °C 8.9 °C 992.2 hPa Calm   1.6 km/h 97% 0.2 mm 7 W/m2
08:41 9.5 °C 9 °C 992.2 hPa Calm     97% 0.2 mm 5 W/m2
08:46 9.6 °C 9.3 °C 992.2 hPa NE 6.4 km/h 6.4 km/h 98% 0.2 mm 5 W/m2
08:51 9.7 °C 9.2 °C 992.5 hPa Calm   1.6 km/h 97% 0.2 mm 0 W/m2
08:56 9.8 °C 9.3 °C 992.2 hPa NE 6.4 km/h 6.4 km/h 97% 0.2 mm 0 W/m2
09:01 9.9 °C 9.6 °C 992.2 hPa Calm   1.6 km/h 98% 0.5 mm 9 W/m2
09:06 9.9 °C 9.6 °C 992.2 hPa ENE 1.4 km/h 1.6 km/h 98% 0.5 mm 12 W/m2
09:11 10 °C 9.7 °C 992.2 hPa Calm   1.6 km/h 98% 0.8 mm 12 W/m2
09:16 10.1 °C 9.6 °C 992.2 hPa Calm     97% 0.8 mm 14 W/m2
09:21 10.1 °C 9.6 °C 992.2 hPa Calm     97% 0.5 mm 25 W/m2
09:26 10.2 °C 9.7 °C 992.5 hPa East 3.2 km/h 3.2 km/h 97% 0.5 mm 19 W/m2
09:31 10.3 °C 10 °C 992.5 hPa East 1.4 km/h 3.2 km/h 98% 0.8 mm 21 W/m2
09:37 10.3 °C 9.8 °C 992.5 hPa SE 1.4 km/h 3.2 km/h 97% 0.8 mm 28 W/m2
09:42 10.4 °C 9.9 °C 992.5 hPa East 1.4 km/h 4.8 km/h 97% 1.0 mm 26 W/m2
09:47 10.4 °C 9.9 °C 992.2 hPa East 1.4 km/h 1.6 km/h 97% 1.0 mm 40 W/m2
09:52 10.5 °C 10.2 °C 992.2 hPa NNE 1.4 km/h 1.6 km/h 98% 1.3 mm 32 W/m2
09:57 10.6 °C 10.3 °C 992.2 hPa NE 3.2 km/h 3.2 km/h 98% 1.3 mm 35 W/m2
10:02 10.6 °C 10.3 °C 992.2 hPa East 1.4 km/h 3.2 km/h 98% 1.0 mm 51 W/m2
10:07 10.7 °C 10.2 °C 991.9 hPa Calm   1.6 km/h 97% 0.8 mm 63 W/m2
10:12 10.7 °C 10.2 °C 991.9 hPa Calm   3.2 km/h 97% 0.8 mm 62 W/m2
10:17 10.8 °C 10.3 °C 991.9 hPa Calm   3.2 km/h 97% 0.8 mm 65 W/m2
10:22 10.9 °C 10.6 °C 991.9 hPa Calm   1.6 km/h 98% 0.8 mm 58 W/m2
10:27 10.9 °C 10.6 °C 991.5 hPa East 1.4 km/h 3.2 km/h 98% 1.0 mm 53 W/m2
10:32 11 °C 10.7 °C 991.9 hPa East 1.4 km/h 3.2 km/h 98% 0.8 mm 54 W/m2
10:37 11.1 °C 10.6 °C 991.5 hPa Calm   1.6 km/h 97% 1.0 mm 47 W/m2
10:42 11.1 °C 10.6 °C 991.5 hPa East 3.2 km/h 3.2 km/h 97% 0.8 mm 69 W/m2
10:47 11.1 °C 10.6 °C 991.5 hPa Calm   6.4 km/h 97% 1.0 mm 42 W/m2
10:52 11.1 °C 10.6 °C 991.5 hPa ENE 1.4 km/h 3.2 km/h 97% 0.8 mm 39 W/m2
10:57 11.2 °C 10.7 °C 991.5 hPa East 1.4 km/h 4.8 km/h 97% 1.0 mm 53 W/m2
11:02 11.2 °C 10.9 °C 991.5 hPa Calm   3.2 km/h 98% 1.0 mm 53 W/m2
11:07 11.2 °C 10.9 °C 991.5 hPa Calm   3.2 km/h 98% 1.3 mm 40 W/m2
11:12 11.2 °C 10.7 °C 991.5 hPa Calm   3.2 km/h 97% 1.3 mm 56 W/m2
11:17 11.2 °C 10.7 °C 991.5 hPa Calm     97% 1.3 mm 42 W/m2
11:22 11.2 °C 10.7 °C 991.2 hPa Calm   1.6 km/h 97% 1.5 mm 60 W/m2
11:27 11.3 °C 10.8 °C 991.5 hPa Calm     97% 1.5 mm 54 W/m2
11:32 11.3 °C 10.8 °C 991.5 hPa East 1.4 km/h 1.6 km/h 97% 1.8 mm 42 W/m2
11:37 11.3 °C 10.8 °C 991.5 hPa Calm     97% 1.5 mm 46 W/m2
11:42 11.4 °C 10.9 °C 991.5 hPa East 1.4 km/h 3.2 km/h 97% 1.8 mm 67 W/m2
11:47 11.4 °C 10.9 °C 991.2 hPa Calm     97% 2.0 mm 40 W/m2
11:52 11.4 °C 10.9 °C 991.2 hPa Calm   1.6 km/h 97% 2.3 mm 44 W/m2
11:57 11.5 °C 11 °C 991.2 hPa Calm   1.6 km/h 97% 2.3 mm 63 W/m2
12:02 11.5 °C 11 °C 991.2 hPa Calm     97% 2.5 mm 70 W/m2
12:07 11.6 °C 11.1 °C 991.5 hPa Calm   3.2 km/h 97% 2.5 mm 65 W/m2
12:12 11.6 °C 11.1 °C 991.5 hPa East 1.4 km/h 4.8 km/h 97% 2.5 mm 62 W/m2
12:17 11.6 °C 11.1 °C 991.5 hPa Calm   3.2 km/h 97% 2.5 mm 53 W/m2
12:22 11.6 °C 11.1 °C 991.5 hPa East 1.4 km/h 4.8 km/h 97% 2.8 mm 67 W/m2
12:27 11.6 °C 11.1 °C 991.5 hPa Calm     97% 2.8 mm 79 W/m2
12:32 11.6 °C 11.1 °C 991.2 hPa Calm   3.2 km/h 97% 2.8 mm 70 W/m2
12:37 11.6 °C 11.1 °C 991.2 hPa Calm   1.6 km/h 97% 3.3 mm 51 W/m2
12:42 11.6 °C 11.1 °C 991.2 hPa ESE 1.4 km/h 3.2 km/h 97% 3.3 mm 53 W/m2
12:47 11.7 °C 11.2 °C 991.2 hPa Calm   1.6 km/h 97% 3.3 mm 58 W/m2
12:52 11.7 °C 11.2 °C 991.2 hPa Calm   4.8 km/h 97% 3.0 mm 53 W/m2
12:57 11.7 °C 11.2 °C 990.9 hPa ESE 1.4 km/h 3.2 km/h 97% 3.3 mm 44 W/m2
13:02 11.8 °C 11.3 °C 990.9 hPa East 1.4 km/h 4.8 km/h 97% 3.0 mm 72 W/m2
13:07 11.8 °C 11.3 °C 990.9 hPa Calm   1.6 km/h 97% 3.0 mm 104 W/m2
13:12 11.9 °C 11.4 °C 990.5 hPa Calm   3.2 km/h 97% 2.8 mm 125 W/m2
13:17 11.9 °C 11.4 °C 990.2 hPa Calm     97% 2.5 mm 109 W/m2
13:22 12 °C 11.5 °C 990.2 hPa ENE 1.4 km/h 3.2 km/h 97% 2.3 mm 97 W/m2
13:27 12.1 °C 11.6 °C 990.2 hPa Calm   1.6 km/h 97% 2.0 mm 104 W/m2
13:32 12.1 °C 11.6 °C 990.2 hPa Calm     97% 1.8 mm 109 W/m2
13:37 12.2 °C 11.7 °C 989.8 hPa Calm     97% 1.5 mm 142 W/m2
13:42 12.2 °C 11.7 °C 989.8 hPa Calm     97% 1.3 mm 165 W/m2
13:47 12.3 °C 11.8 °C 989.5 hPa Calm   1.6 km/h 97% 0.8 mm 158 W/m2
13:52 12.3 °C 11.8 °C 989.5 hPa Calm   1.6 km/h 97% 0.5 mm 174 W/m2
13:57 12.3 °C 11.8 °C 989.2 hPa NNW 1.4 km/h 1.6 km/h 97% 0.2 mm 162 W/m2
14:02 12.4 °C 11.9 °C 989.2 hPa Calm   1.6 km/h 97% 0.2 mm 149 W/m2
14:07 12.6 °C 12.1 °C 989.2 hPa Calm   3.2 km/h 97% 0.2 mm 114 W/m2
14:12 12.6 °C 12.1 °C 988.8 hPa NNW 1.4 km/h 3.2 km/h 97% 0.2 mm 114 W/m2
14:17 12.7 °C 12.1 °C 988.8 hPa Calm   1.6 km/h 96% 0.2 mm 98 W/m2
14:22 12.7 °C 12.1 °C 988.8 hPa Calm   4.8 km/h 96% 0.2 mm 88 W/m2
14:27 12.8 °C 12.2 °C 988.5 hPa Calm   1.6 km/h 96% 0.2 mm 81 W/m2
14:32 12.8 °C 12.2 °C 988.1 hPa Calm   3.2 km/h 96% 0.2 mm 76 W/m2
14:37 12.8 °C 12 °C 988.1 hPa Calm   1.6 km/h 95% 0.2 mm 69 W/m2
14:43 12.8 °C 12 °C 987.8 hPa Calm     95% 0.2 mm 58 W/m2
14:48 12.9 °C 12.1 °C 987.5 hPa Calm   1.6 km/h 95% 0.2 mm 60 W/m2
14:53 12.9 °C 12.1 °C 987.5 hPa Calm   1.6 km/h 95% 0.2 mm 53 W/m2
14:58 12.9 °C 12.1 °C 987.5 hPa SE 1.4 km/h 3.2 km/h 95% 0.2 mm 53 W/m2
15:03 12.9 °C 12.1 °C 987.5 hPa NW 1.4 km/h 3.2 km/h 95% 0.0 mm 54 W/m2
15:08 12.9 °C 12.1 °C 987.5 hPa SW 1.4 km/h 1.6 km/h 95% 0.0 mm 58 W/m2
15:13 13 °C 12.2 °C 987.5 hPa Calm   1.6 km/h 95% 0.0 mm 62 W/m2
15:18 13.1 °C 12.3 °C 987.1 hPa Calm   3.2 km/h 95% 0.0 mm 62 W/m2
15:23 13.1 °C 12.3 °C 987.1 hPa WNW 1.4 km/h 3.2 km/h 95% 0.0 mm 58 W/m2
15:28 13.2 °C 12.4 °C 987.1 hPa WSW 3.2 km/h 3.2 km/h 95% 0.0 mm 54 W/m2
15:33 13.2 °C 12.4 °C 987.1 hPa Calm     95% 0.0 mm 54 W/m2
15:38 13.2 °C 12.4 °C 987.1 hPa West 1.4 km/h 3.2 km/h 95% 0.0 mm 58 W/m2
15:43 13.3 °C 12.7 °C 987.5 hPa Calm     96% 0.2 mm 69 W/m2
15:48 13.3 °C 12.7 °C 987.5 hPa Calm   3.2 km/h 96% 0.2 mm 54 W/m2
15:53 13.3 °C 12.7 °C 987.5 hPa West 1.4 km/h 1.6 km/h 96% 0.2 mm 49 W/m2
15:58 13.4 °C 12.8 °C 987.5 hPa Calm     96% 0.2 mm 42 W/m2
16:03 13.4 °C 12.8 °C 987.5 hPa Calm     96% 0.5 mm 42 W/m2
16:08 13.4 °C 12.8 °C 987.5 hPa Calm     96% 0.5 mm 53 W/m2
16:13 13.4 °C 12.8 °C 987.5 hPa West 1.4 km/h 3.2 km/h 96% 0.5 mm 53 W/m2
16:18 13.4 °C 12.8 °C 987.5 hPa Calm   3.2 km/h 96% 0.5 mm 44 W/m2
16:23 13.4 °C 12.8 °C 987.5 hPa Calm     96% 0.5 mm 51 W/m2
16:28 13.5 °C 12.9 °C 987.5 hPa Calm     96% 0.5 mm 72 W/m2
16:33 13.6 °C 13 °C 987.1 hPa West 1.4 km/h 3.2 km/h 96% 0.5 mm 56 W/m2
16:45 13.6 °C 13 °C 987.1 hPa Calm     96% 0.5 mm 51 W/m2
16:50 13.6 °C 13 °C 987.1 hPa West 1.4 km/h 3.2 km/h 96% 0.5 mm 56 W/m2
16:55 13.7 °C 13.1 °C 987.5 hPa Calm   1.6 km/h 96% 0.5 mm 53 W/m2
17:00 13.7 °C 13.1 °C 987.5 hPa Calm   3.2 km/h 96% 0.2 mm 51 W/m2
17:05 13.8 °C 13.2 °C 987.5 hPa Calm     96% 0.2 mm 44 W/m2
17:10 13.8 °C 13.2 °C 987.5 hPa Calm   3.2 km/h 96% 0.2 mm 39 W/m2
17:15 13.8 °C 13.2 °C 987.5 hPa Calm     96% 0.2 mm 37 W/m2
17:20 13.8 °C 13.2 °C 987.5 hPa Calm     96% 0.2 mm 37 W/m2
17:25 13.8 °C 13.2 °C 987.5 hPa Calm     96% 0.2 mm 39 W/m2
17:30 13.8 °C 13.2 °C 987.5 hPa Calm     96% 0.0 mm 33 W/m2
17:35 13.8 °C 13.2 °C 987.5 hPa West 1.4 km/h 3.2 km/h 96% 0.0 mm 28 W/m2
17:40 13.8 °C 13.2 °C 987.1 hPa Calm     96% 0.0 mm 28 W/m2
17:45 13.8 °C 13.2 °C 987.1 hPa Calm   3.2 km/h 96% 0.0 mm 26 W/m2
17:50 13.8 °C 13.2 °C 987.1 hPa Calm   1.6 km/h 96% 0.0 mm 23 W/m2
17:55 13.8 °C 13.2 °C 987.1 hPa South 1.4 km/h 3.2 km/h 96% 0.0 mm 19 W/m2
18:00 13.7 °C 13.1 °C 987.1 hPa South 1.4 km/h 3.2 km/h 96% 0.0 mm 18 W/m2
18:06 13.7 °C 13.1 °C 987.1 hPa Calm   1.6 km/h 96% 0.2 mm 16 W/m2
18:11 13.7 °C 13.1 °C 987.1 hPa Calm   3.2 km/h 96% 0.2 mm 14 W/m2
18:16 13.7 °C 13.1 °C 987.1 hPa Calm     96% 0.2 mm 12 W/m2
18:21 13.6 °C 13 °C 987.1 hPa Calm     96% 0.2 mm 11 W/m2
18:26 13.6 °C 13 °C 986.8 hPa Calm     96% 0.2 mm 9 W/m2
18:31 13.6 °C 13 °C 986.8 hPa Calm     96% 0.5 mm 7 W/m2
18:36 13.6 °C 13.1 °C 986.8 hPa Calm     97% 0.5 mm 7 W/m2
18:41 13.6 °C 13.1 °C 986.8 hPa Calm   1.6 km/h 97% 0.5 mm 5 W/m2
18:46 13.5 °C 13 °C 986.8 hPa Calm     97% 0.5 mm 0 W/m2
18:51 13.5 °C 13 °C 986.8 hPa Calm     97% 0.5 mm 0 W/m2
18:56 13.5 °C 13 °C 986.8 hPa SW 1.4 km/h 1.6 km/h 97% 0.5 mm 0 W/m2
19:01 13.5 °C 13 °C 987.1 hPa Calm   1.6 km/h 97% 0.5 mm 0 W/m2
19:06 13.4 °C 12.9 °C 987.1 hPa Calm   1.6 km/h 97% 0.5 mm 0 W/m2
19:11 13.4 °C 12.9 °C 987.1 hPa Calm     97% 0.5 mm 0 W/m2
19:16 13.4 °C 12.9 °C 987.1 hPa Calm   1.6 km/h 97% 0.5 mm 0 W/m2
19:21 13.4 °C 12.9 °C 987.1 hPa Calm     97% 0.5 mm 0 W/m2
19:26 13.4 °C 12.9 °C 987.1 hPa Calm     97% 0.5 mm 0 W/m2
19:31 13.4 °C 12.9 °C 986.8 hPa Calm     97% 0.5 mm 0 W/m2
19:36 13.3 °C 12.8 °C 986.8 hPa Calm   1.6 km/h 97% 0.5 mm 0 W/m2
19:41 13.3 °C 12.8 °C 986.8 hPa Calm     97% 0.5 mm 0 W/m2
19:46 13.3 °C 12.8 °C 986.8 hPa Calm     97% 0.5 mm 0 W/m2
19:51 13.3 °C 12.8 °C 986.8 hPa Calm   1.6 km/h 97% 0.5 mm 0 W/m2
19:56 13.3 °C 12.8 °C 986.8 hPa SW 1.4 km/h 3.2 km/h 97% 0.2 mm 0 W/m2
20:01 13.3 °C 12.8 °C 986.5 hPa Calm   3.2 km/h 97% 0.2 mm 0 W/m2
20:06 13.3 °C 12.8 °C 986.5 hPa SW 1.4 km/h 1.6 km/h 97% 0.2 mm 0 W/m2
20:11 13.2 °C 12.7 °C 986.5 hPa SW 3.2 km/h 3.2 km/h 97% 0.2 mm 0 W/m2
20:16 13.2 °C 12.7 °C 986.1 hPa Calm     97% 0.2 mm 0 W/m2
20:21 13.2 °C 12.7 °C 986.1 hPa Calm   3.2 km/h 97% 0.2 mm 0 W/m2
20:26 13.2 °C 12.7 °C 986.1 hPa NW 1.4 km/h 1.6 km/h 97% 0.0 mm 0 W/m2
20:31 13.2 °C 12.7 °C 985.8 hPa Calm   1.6 km/h 97% 0.0 mm 0 W/m2
20:36 13.1 °C 12.6 °C 985.8 hPa West 1.4 km/h 1.6 km/h 97% 0.0 mm 0 W/m2
20:41 13.1 °C 12.6 °C 985.8 hPa Calm   3.2 km/h 97% 0.0 mm 0 W/m2
20:46 13.1 °C 12.6 °C 985.4 hPa Calm   3.2 km/h 97% 0.0 mm 0 W/m2
20:51 13 °C 12.5 °C 985.8 hPa WSW 1.4 km/h 4.8 km/h 97% 0.0 mm 0 W/m2
20:56 13.1 °C 12.6 °C 985.8 hPa WSW 1.4 km/h 3.2 km/h 97% 0.0 mm 0 W/m2
21:01 13 °C 12.5 °C 985.8 hPa Calm   4.8 km/h 97% 0.0 mm 0 W/m2
21:06 13 °C 12.5 °C 986.1 hPa Calm     97% 0.0 mm 0 W/m2
21:11 13 °C 12.5 °C 986.1 hPa WSW 1.4 km/h 3.2 km/h 97% 0.0 mm 0 W/m2
21:16 13 °C 12.5 °C 986.1 hPa Calm   3.2 km/h 97% 0.0 mm 0 W/m2
21:21 13 °C 12.5 °C 985.8 hPa Calm   1.6 km/h 97% 0.0 mm 0 W/m2
21:26 12.9 °C 12.4 °C 985.8 hPa Calm   4.8 km/h 97% 0.0 mm 0 W/m2
21:31 12.9 °C 12.4 °C 985.8 hPa WSW 1.4 km/h 3.2 km/h 97% 0.0 mm 0 W/m2
21:36 12.9 °C 12.4 °C 986.1 hPa Calm   3.2 km/h 97% 0.0 mm 0 W/m2
21:41 12.9 °C 12.4 °C 986.1 hPa WSW 1.4 km/h 3.2 km/h 97% 0.0 mm 0 W/m2
21:46 13 °C 12.5 °C 986.1 hPa WSW 1.4 km/h 3.2 km/h 97% 0.0 mm 0 W/m2
21:51 13 °C 12.5 °C 986.1 hPa Calm     97% 0.0 mm 0 W/m2
21:56 13 °C 12.5 °C 986.1 hPa Calm   1.6 km/h 97% 0.0 mm 0 W/m2
22:01 13.1 °C 12.6 °C 986.1 hPa Calm     97% 0.0 mm 0 W/m2
22:06 13.1 °C 12.6 °C 986.1 hPa WSW 1.4 km/h 3.2 km/h 97% 0.0 mm 0 W/m2
22:11 13.1 °C 12.6 °C 986.5 hPa WSW 1.4 km/h 3.2 km/h 97% 0.2 mm 0 W/m2
22:16 13.1 °C 12.6 °C 986.8 hPa WSW 1.4 km/h 3.2 km/h 97% 0.2 mm 0 W/m2
22:21 13.1 °C 12.6 °C 986.8 hPa WSW 1.4 km/h 1.6 km/h 97% 0.2 mm 0 W/m2
22:26 13.1 °C 12.6 °C 986.5 hPa Calm   1.6 km/h 97% 0.2 mm 0 W/m2
22:31 13.1 °C 12.6 °C 986.5 hPa WSW 1.4 km/h 1.6 km/h 97% 0.2 mm 0 W/m2
22:36 13 °C 12.5 °C 986.8 hPa WSW 3.2 km/h 3.2 km/h 97% 0.2 mm 0 W/m2
22:41 13.1 °C 12.6 °C 987.1 hPa West 3.2 km/h 12.9 km/h 97% 0.2 mm 0 W/m2
22:46 13.2 °C 12.7 °C 987.1 hPa NNW 3.2 km/h 8 km/h 97% 0.2 mm 0 W/m2
22:51 13.2 °C 12.7 °C 987.1 hPa West 1.4 km/h 12.9 km/h 97% 0.2 mm 0 W/m2
22:56 13.3 °C 12.8 °C 987.1 hPa SW 1.4 km/h 4.8 km/h 97% 0.2 mm 0 W/m2
23:01 13.3 °C 12.8 °C 987.1 hPa NW 1.4 km/h 4.8 km/h 97% 0.2 mm 0 W/m2
23:06 13.4 °C 12.9 °C 987.1 hPa WNW 6.4 km/h 9.7 km/h 97% 0.2 mm 0 W/m2
23:11 13.4 °C 12.9 °C 986.8 hPa WNW 4.7 km/h 11.3 km/h 97% 0.0 mm 0 W/m2
23:16 13.4 °C 12.9 °C 986.8 hPa West 4.7 km/h 16.1 km/h 97% 0.0 mm 0 W/m2
23:21 13.4 °C 12.9 °C 986.8 hPa WSW 6.4 km/h 12.9 km/h 97% 0.0 mm 0 W/m2
23:26 13.4 °C 12.9 °C 987.1 hPa NW 3.2 km/h 16.1 km/h 97% 0.0 mm 0 W/m2
23:32 13.4 °C 12.8 °C 987.1 hPa West 11.1 km/h 12.9 km/h 96% 0.0 mm 0 W/m2
23:37 13.4 °C 12.8 °C 987.1 hPa SW 1.4 km/h 9.7 km/h 96% 0.0 mm 0 W/m2
23:42 13.4 °C 12.8 °C 987.1 hPa WSW 1.4 km/h 12.9 km/h 96% 0.0 mm 0 W/m2
23:47 13.4 °C 12.8 °C 987.5 hPa WNW 6.4 km/h 11.3 km/h 96% 0.0 mm 0 W/m2
23:52 13.5 °C 12.9 °C 987.5 hPa WNW 7.9 km/h 11.3 km/h 96% 0.0 mm 0 W/m2
23:57 13.5 °C 12.7 °C 987.5 hPa West 6.4 km/h 6.4 km/h 95% 0.0 mm 0 W/m2
Juneau County Weather
Compliments of Weather Underground - 4 mb